createdAt,value
2022-11-18T00:02:19.506Z,1.15
2022-11-18T00:07:22.611Z,1.23
2022-11-18T00:12:44.305Z,0.95
2022-11-18T00:17:47.324Z,0.88
2022-11-18T00:22:50.316Z,1.45
2022-11-18T00:27:55.449Z,0.77
2022-11-18T00:32:58.415Z,0.45
2022-11-18T00:38:01.439Z,0.98
2022-11-18T00:43:05.777Z,0.70
2022-11-18T00:48:08.802Z,0.75
2022-11-18T00:53:11.764Z,0.77
2022-11-18T00:58:16.519Z,0.50
2022-11-18T01:03:20.204Z,1.27
2022-11-18T01:08:24.139Z,0.85
2022-11-18T01:13:29.234Z,0.80
2022-11-18T01:18:32.612Z,0.88
2022-11-18T01:23:35.639Z,0.70
2022-11-18T01:28:40.656Z,1.05
2022-11-18T01:33:44.267Z,1.10
2022-11-18T01:38:48.252Z,1.38
2022-11-18T01:43:55.590Z,0.75
2022-11-18T01:49:03.754Z,1.45
2022-11-18T01:54:11.793Z,0.57
2022-11-18T01:59:19.984Z,1.17
2022-11-18T02:04:24.109Z,1.13
2022-11-18T02:09:27.112Z,0.30
2022-11-18T02:14:35.005Z,1.00
2022-11-18T02:20:09.232Z,0.45
2022-11-18T02:25:23.510Z,0.30
2022-11-18T02:30:29.544Z,0.50
2022-11-18T02:35:39.464Z,0.25
2022-11-18T02:40:45.711Z,1.38
2022-11-18T02:45:53.356Z,0.55
2022-11-18T02:50:57.131Z,0.28
2022-11-18T02:56:02.900Z,0.28
2022-11-18T03:01:07.547Z,0.75
2022-11-18T03:06:17.504Z,2.28
2022-11-18T03:11:25.031Z,0.32
2022-11-18T03:16:36.291Z,0.20
2022-11-18T03:21:42.920Z,1.05
2022-11-18T03:26:51.833Z,0.80
2022-11-18T03:32:01.351Z,0.30
2022-11-18T03:37:10.442Z,0.00
2022-11-18T03:42:17.938Z,0.43
2022-11-18T03:47:27.252Z,0.60
2022-11-18T03:52:34.664Z,0.20
2022-11-18T03:57:46.212Z,0.17
2022-11-18T04:02:51.613Z,0.10
2022-11-18T04:07:58.702Z,0.30
2022-11-18T04:13:07.690Z,0.10
2022-11-18T04:18:12.337Z,0.38
2022-11-18T04:23:15.438Z,0.10
2022-11-18T04:28:18.435Z,0.03
2022-11-18T04:33:22.857Z,0.65
2022-11-18T04:38:25.883Z,1.55
2022-11-18T04:43:28.909Z,0.13
2022-11-18T04:48:33.284Z,0.57
2022-11-18T04:53:36.294Z,1.30
2022-11-18T04:58:39.292Z,0.10
2022-11-18T05:03:47.758Z,0.65
2022-11-18T05:08:53.435Z,0.45
2022-11-18T05:13:56.497Z,0.20
2022-11-18T05:19:02.538Z,0.20
2022-11-18T05:24:06.426Z,0.10
2022-11-18T05:29:09.499Z,0.10
2022-11-18T05:34:15.090Z,0.10
2022-11-18T05:39:18.475Z,0.30
2022-11-18T05:44:21.688Z,0.15
2022-11-18T05:49:26.280Z,0.17
2022-11-18T05:54:29.547Z,0.10
2022-11-18T05:59:32.593Z,0.57
2022-11-18T06:04:40.584Z,0.65
2022-11-18T06:09:46.240Z,0.00
2022-11-18T06:14:54.228Z,0.00
2022-11-18T06:19:59.623Z,0.10
2022-11-18T06:25:03.754Z,0.32
2022-11-18T06:30:07.939Z,1.02
2022-11-18T06:35:12.423Z,0.73
2022-11-18T06:40:15.549Z,1.15
2022-11-18T06:45:18.632Z,0.95
2022-11-18T06:50:23.051Z,1.45
2022-11-18T06:55:26.036Z,0.73
2022-11-18T07:00:29.136Z,0.40
2022-11-18T07:05:33.609Z,3.30
2022-11-18T07:10:36.642Z,2.25
2022-11-18T07:15:39.744Z,3.38
2022-11-18T07:20:44.152Z,3.75
2022-11-18T07:25:47.183Z,6.03
2022-11-18T07:30:50.302Z,13.20
2022-11-18T07:35:54.736Z,14.23
2022-11-18T07:41:03.612Z,6.43
2022-11-18T07:46:17.276Z,8.05
2022-11-18T07:51:24.139Z,4.88
2022-11-18T07:56:27.228Z,5.57
2022-11-18T08:01:30.967Z,10.50
2022-11-18T08:06:36.420Z,9.15
2022-11-18T08:11:40.886Z,7.13
2022-11-18T08:16:43.892Z,7.60
2022-11-18T08:21:48.477Z,7.65
2022-11-18T08:26:51.582Z,11.52
2022-11-18T08:31:54.718Z,9.63
2022-11-18T08:36:59.125Z,8.40
2022-11-18T08:42:02.171Z,9.05
2022-11-18T08:47:05.333Z,4.78
2022-11-18T08:52:09.928Z,5.30
2022-11-18T08:57:12.902Z,5.32
2022-11-18T09:02:19.845Z,4.15
2022-11-18T09:07:24.367Z,6.13
2022-11-18T09:12:27.502Z,8.40
2022-11-18T09:17:30.527Z,5.32
2022-11-18T09:22:37.344Z,6.63
2022-11-18T09:27:40.414Z,6.72
2022-11-18T09:32:43.423Z,6.65
2022-11-18T09:37:47.786Z,5.38
2022-11-18T09:43:00.550Z,8.70
2022-11-18T09:48:19.168Z,6.93
2022-11-18T09:53:25.982Z,7.13
2022-11-18T09:58:35.073Z,7.15
2022-11-18T10:03:39.998Z,4.35
2022-11-18T10:08:47.887Z,5.30
2022-11-18T10:14:02.355Z,5.93
2022-11-18T10:19:15.155Z,6.40
2022-11-18T10:24:22.016Z,7.05
2022-11-18T10:29:25.508Z,12.80
2022-11-18T10:34:28.528Z,2.80
2022-11-18T10:39:33.295Z,24.75
2022-11-18T10:44:39.124Z,7.05
2022-11-18T10:49:42.151Z,7.68
2022-11-18T10:54:47.089Z,7.50
2022-11-18T10:59:53.403Z,6.50
2022-11-18T11:04:56.511Z,10.32
2022-11-18T11:10:22.803Z,10.10
2022-11-18T11:15:33.340Z,7.85
2022-11-18T11:20:37.474Z,7.85
2022-11-18T11:31:16.025Z,6.30
2022-11-18T11:36:33.455Z,7.63
2022-11-18T11:41:46.679Z,7.53
2022-11-18T11:47:18.418Z,5.80
2022-11-18T11:52:32.979Z,4.88
2022-11-18T11:57:48.384Z,5.78
2022-11-18T12:03:06.274Z,4.70
2022-11-18T12:08:15.398Z,4.45
2022-11-18T12:13:44.585Z,7.35
2022-11-18T12:18:51.570Z,3.58
2022-11-18T12:24:31.126Z,3.85
2022-11-18T12:29:43.227Z,6.10
2022-11-18T12:34:46.412Z,3.30
2022-11-18T12:39:58.460Z,4.75
2022-11-18T12:45:48.549Z,2.95
2022-11-18T12:50:52.737Z,4.95
2022-11-18T12:55:55.997Z,4.18
2022-11-18T13:01:09.035Z,4.40
2022-11-18T13:06:25.597Z,2.50
2022-11-18T13:11:50.485Z,3.22
2022-11-18T13:17:12.235Z,2.47
2022-11-18T13:22:37.067Z,3.15
2022-11-18T13:27:50.239Z,2.17
2022-11-18T13:32:58.804Z,3.28
2022-11-18T13:38:03.215Z,7.97
2022-11-18T13:43:06.875Z,2.88
2022-11-18T13:48:15.054Z,3.83
2022-11-18T13:53:29.150Z,5.15
2022-11-18T13:59:10.404Z,5.10
2022-11-18T14:04:06.592Z,3.92
2022-11-18T14:09:21.211Z,6.05
2022-11-18T14:14:30.725Z,4.97
2022-11-18T14:19:36.270Z,27.80
2022-11-18T14:24:39.458Z,22.48
2022-11-18T14:29:51.962Z,18.58
2022-11-18T14:35:00.678Z,15.02
2022-11-18T14:40:03.724Z,11.10
2022-11-18T14:45:07.373Z,26.10
2022-11-18T14:50:13.717Z,8.88
2022-11-18T14:55:16.895Z,8.52
2022-11-18T15:00:20.399Z,8.45
2022-11-18T15:05:24.782Z,7.85
2022-11-18T15:10:27.889Z,7.38
2022-11-18T15:15:31.048Z,6.88
2022-11-18T15:20:35.513Z,8.50
2022-11-18T15:25:38.630Z,6.55
2022-11-18T15:30:41.680Z,5.75
2022-11-18T15:35:46.029Z,10.02
2022-11-18T15:40:48.984Z,7.32
2022-11-18T15:45:58.052Z,5.32
2022-11-18T15:51:05.280Z,5.32
2022-11-18T15:56:25.577Z,7.25
2022-11-18T16:01:31.031Z,8.13
2022-11-18T16:06:35.898Z,12.45
2022-11-18T16:11:56.571Z,10.13
2022-11-18T16:16:59.585Z,44.05
2022-11-18T16:22:03.976Z,88.47
2022-11-18T16:27:06.913Z,93.90
2022-11-18T16:32:15.102Z,82.22
2022-11-18T16:37:19.451Z,94.10
2022-11-18T16:42:22.461Z,90.60
2022-11-18T16:47:25.465Z,94.97
2022-11-18T16:52:29.831Z,83.82
2022-11-18T16:57:32.830Z,79.10
2022-11-18T17:02:36.317Z,76.95
2022-11-18T17:07:41.145Z,95.25
2022-11-18T17:12:44.195Z,67.85
2022-11-18T17:17:47.142Z,61.85
2022-11-18T17:22:53.410Z,60.47
2022-11-18T17:27:56.389Z,57.35
2022-11-18T17:32:59.350Z,58.88
2022-11-18T17:38:03.734Z,56.53
2022-11-18T17:43:06.779Z,52.22
2022-11-18T17:48:09.737Z,45.30
2022-11-18T17:53:14.649Z,48.08
2022-11-18T17:58:17.694Z,49.72
2022-11-18T18:03:20.724Z,268.10
2022-11-18T18:08:25.055Z,423.35
2022-11-18T18:13:45.685Z,394.00
2022-11-18T18:18:48.700Z,383.17
2022-11-18T18:23:53.160Z,356.35
2022-11-18T18:28:56.126Z,333.58
2022-11-18T18:33:59.190Z,337.30
2022-11-18T18:39:03.656Z,324.83
2022-11-18T18:44:06.728Z,318.42
2022-11-18T18:49:11.909Z,351.27
2022-11-18T18:54:18.159Z,375.35
2022-11-18T18:59:21.410Z,377.80
2022-11-18T19:04:24.440Z,371.52
2022-11-18T19:09:28.829Z,369.70
2022-11-18T19:14:33.553Z,361.52
2022-11-18T19:19:53.878Z,343.77
2022-11-18T19:24:58.838Z,317.33
2022-11-18T19:30:02.188Z,316.38
2022-11-18T19:35:05.881Z,312.90
2022-11-18T19:40:11.506Z,289.65
2022-11-18T19:45:14.913Z,277.48
2022-11-18T19:50:18.395Z,265.83
2022-11-18T19:55:22.767Z,236.52
2022-11-18T20:00:25.747Z,241.90
2022-11-18T20:05:47.499Z,209.85
2022-11-18T20:10:53.489Z,209.02
2022-11-18T20:16:01.326Z,188.60
2022-11-18T20:21:07.481Z,176.65
2022-11-18T20:26:13.631Z,166.68
2022-11-18T20:31:19.145Z,158.00
2022-11-18T20:36:24.093Z,155.63
2022-11-18T20:41:30.485Z,152.45
2022-11-18T20:46:34.586Z,135.05
2022-11-18T20:51:37.570Z,133.75
2022-11-18T20:56:41.923Z,131.43
2022-11-18T21:01:44.941Z,122.30
2022-11-18T21:06:47.950Z,112.82
2022-11-18T21:11:52.301Z,111.28
2022-11-18T21:16:57.959Z,112.10
2022-11-18T21:22:01.438Z,111.35
2022-11-18T21:27:07.009Z,84.05
2022-11-18T21:32:10.090Z,72.90
2022-11-18T21:37:13.088Z,61.60
2022-11-18T21:42:17.427Z,54.50
2022-11-18T21:47:20.428Z,52.10
2022-11-18T21:52:23.383Z,41.03
2022-11-18T21:57:27.800Z,42.03
2022-11-18T22:02:30.773Z,37.15
2022-11-18T22:07:34.092Z,31.25
2022-11-18T22:12:38.531Z,29.23
2022-11-18T22:17:41.745Z,26.08
2022-11-18T22:22:44.812Z,23.30
2022-11-18T22:27:49.228Z,18.88
2022-11-18T22:32:52.279Z,18.48
2022-11-18T22:37:55.217Z,16.58
2022-11-18T22:42:59.580Z,19.88
2022-11-18T22:48:02.605Z,20.23
2022-11-18T22:53:05.816Z,29.63
2022-11-18T22:58:10.165Z,31.67
2022-11-18T23:03:13.128Z,28.58
2022-11-18T23:08:16.202Z,35.08
2022-11-18T23:13:38.016Z,27.50
2022-11-18T23:18:41.251Z,30.55
2022-11-18T23:23:44.445Z,26.70
2022-11-18T23:28:48.793Z,27.52
2022-11-18T23:33:51.824Z,28.77
2022-11-18T23:38:55.526Z,25.48
2022-11-18T23:43:59.890Z,24.88
2022-11-18T23:49:02.909Z,22.77
2022-11-18T23:54:06.033Z,24.67
2022-11-18T23:59:10.522Z,22.45
